sensor_id;sensor_type;location;lat;lon;timestamp;temperature;humidity
23100;DHT22;53791;50.696;4.396;2023-08-06T00:00:03;15.70;99.90
23100;DHT22;53791;50.696;4.396;2023-08-06T00:02:31;15.60;99.90
23100;DHT22;53791;50.696;4.396;2023-08-06T00:04:59;15.70;99.90
23100;DHT22;53791;50.696;4.396;2023-08-06T00:07:26;15.60;99.90
23100;DHT22;53791;50.696;4.396;2023-08-06T00:09:54;15.60;99.90
23100;DHT22;53791;50.696;4.396;2023-08-06T00:12:21;15.70;99.90
23100;DHT22;53791;50.696;4.396;2023-08-06T00:14:52;15.70;99.90
23100;DHT22;53791;50.696;4.396;2023-08-06T00:17:20;15.70;99.90
23100;DHT22;53791;50.696;4.396;2023-08-06T00:19:47;15.70;99.90
23100;DHT22;53791;50.696;4.396;2023-08-06T00:22:15;15.80;99.90
23100;DHT22;53791;50.696;4.396;2023-08-06T00:24:42;15.70;99.90
23100;DHT22;53791;50.696;4.396;2023-08-06T00:27:10;15.70;99.90
23100;DHT22;53791;50.696;4.396;2023-08-06T00:29:37;15.70;99.90
23100;DHT22;53791;50.696;4.396;2023-08-06T00:32:05;15.80;99.90
23100;DHT22;53791;50.696;4.396;2023-08-06T00:34:32;15.80;99.90
23100;DHT22;53791;50.696;4.396;2023-08-06T00:37:00;15.70;99.90
23100;DHT22;53791;50.696;4.396;2023-08-06T00:39:27;15.70;99.90
23100;DHT22;53791;50.696;4.396;2023-08-06T00:41:55;15.70;99.90
23100;DHT22;53791;50.696;4.396;2023-08-06T00:44:22;15.80;99.90
23100;DHT22;53791;50.696;4.396;2023-08-06T00:46:50;15.80;99.90
23100;DHT22;53791;50.696;4.396;2023-08-06T00:49:18;15.80;99.90
23100;DHT22;53791;50.696;4.396;2023-08-06T00:51:46;15.80;99.90
23100;DHT22;53791;50.696;4.396;2023-08-06T00:54:14;15.80;99.90
23100;DHT22;53791;50.696;4.396;2023-08-06T00:56:42;15.80;99.90
23100;DHT22;53791;50.696;4.396;2023-08-06T00:59:11;15.90;99.90
23100;DHT22;53791;50.696;4.396;2023-08-06T01:01:39;15.90;99.90
23100;DHT22;53791;50.696;4.396;2023-08-06T01:04:07;15.80;99.90
23100;DHT22;53791;50.696;4.396;2023-08-06T01:09:45;15.80;99.90
23100;DHT22;53791;50.696;4.396;2023-08-06T01:12:23;15.70;99.90
23100;DHT22;53791;50.696;4.396;2023-08-06T01:15:00;15.80;99.90
23100;DHT22;53791;50.696;4.396;2023-08-06T01:17:27;15.80;99.90
23100;DHT22;53791;50.696;4.396;2023-08-06T01:19:55;15.80;99.90
23100;DHT22;53791;50.696;4.396;2023-08-06T01:22:22;15.70;99.90
23100;DHT22;53791;50.696;4.396;2023-08-06T01:24:51;15.60;99.90
23100;DHT22;53791;50.696;4.396;2023-08-06T01:27:30;15.60;99.90
23100;DHT22;53791;50.696;4.396;2023-08-06T01:32:49;15.50;99.90
23100;DHT22;53791;50.696;4.396;2023-08-06T01:35:17;15.60;99.90
23100;DHT22;53791;50.696;4.396;2023-08-06T01:37:47;15.60;99.90
23100;DHT22;53791;50.696;4.396;2023-08-06T01:40:15;15.50;99.90
23100;DHT22;53791;50.696;4.396;2023-08-06T01:42:42;15.50;99.90
23100;DHT22;53791;50.696;4.396;2023-08-06T01:45:11;15.50;99.90
23100;DHT22;53791;50.696;4.396;2023-08-06T01:47:39;15.50;99.90
23100;DHT22;53791;50.696;4.396;2023-08-06T01:50:07;15.50;99.90
23100;DHT22;53791;50.696;4.396;2023-08-06T01:52:34;15.40;99.90
23100;DHT22;53791;50.696;4.396;2023-08-06T01:55:02;15.10;99.90
23100;DHT22;53791;50.696;4.396;2023-08-06T01:57:29;15.00;99.90
23100;DHT22;53791;50.696;4.396;2023-08-06T01:59:57;15.00;99.90
23100;DHT22;53791;50.696;4.396;2023-08-06T02:02:25;15.10;99.90
23100;DHT22;53791;50.696;4.396;2023-08-06T02:04:52;15.10;99.90
23100;DHT22;53791;50.696;4.396;2023-08-06T02:07:21;15.10;99.90
23100;DHT22;53791;50.696;4.396;2023-08-06T02:09:49;15.10;99.90
23100;DHT22;53791;50.696;4.396;2023-08-06T02:12:16;15.10;99.90
23100;DHT22;53791;50.696;4.396;2023-08-06T02:14:44;15.00;99.90
23100;DHT22;53791;50.696;4.396;2023-08-06T02:17:12;14.90;99.90
23100;DHT22;53791;50.696;4.396;2023-08-06T02:19:40;14.90;99.90
23100;DHT22;53791;50.696;4.396;2023-08-06T02:22:09;15.00;99.90
23100;DHT22;53791;50.696;4.396;2023-08-06T02:24:37;15.00;99.90
23100;DHT22;53791;50.696;4.396;2023-08-06T02:27:04;14.90;99.90
23100;DHT22;53791;50.696;4.396;2023-08-06T02:29:32;14.90;99.90
23100;DHT22;53791;50.696;4.396;2023-08-06T02:31:59;14.90;99.90
23100;DHT22;53791;50.696;4.396;2023-08-06T02:34:28;14.80;99.90
23100;DHT22;53791;50.696;4.396;2023-08-06T02:36:56;14.80;99.90
23100;DHT22;53791;50.696;4.396;2023-08-06T02:39:23;14.90;99.90
23100;DHT22;53791;50.696;4.396;2023-08-06T02:41:52;14.80;99.90
23100;DHT22;53791;50.696;4.396;2023-08-06T02:44:19;14.80;99.90
23100;DHT22;53791;50.696;4.396;2023-08-06T02:46:47;14.90;99.90
23100;DHT22;53791;50.696;4.396;2023-08-06T02:49:14;14.80;99.90
23100;DHT22;53791;50.696;4.396;2023-08-06T02:51:42;14.90;99.90
23100;DHT22;53791;50.696;4.396;2023-08-06T02:54:11;14.90;99.90
23100;DHT22;53791;50.696;4.396;2023-08-06T02:56:38;15.00;99.90
23100;DHT22;53791;50.696;4.396;2023-08-06T02:59:06;14.90;99.90
23100;DHT22;53791;50.696;4.396;2023-08-06T03:01:33;14.90;99.90
23100;DHT22;53791;50.696;4.396;2023-08-06T03:04:03;15.00;99.90
23100;DHT22;53791;50.696;4.396;2023-08-06T03:06:31;15.00;99.90
23100;DHT22;53791;50.696;4.396;2023-08-06T03:08:58;15.10;99.90
23100;DHT22;53791;50.696;4.396;2023-08-06T03:11:26;15.10;99.90
23100;DHT22;53791;50.696;4.396;2023-08-06T03:13:53;15.10;99.90
23100;DHT22;53791;50.696;4.396;2023-08-06T03:16:21;15.10;99.90
23100;DHT22;53791;50.696;4.396;2023-08-06T03:18:48;15.20;99.90
23100;DHT22;53791;50.696;4.396;2023-08-06T03:21:16;15.10;99.90
23100;DHT22;53791;50.696;4.396;2023-08-06T03:23:46;15.10;99.90
23100;DHT22;53791;50.696;4.396;2023-08-06T03:26:13;15.00;99.90
23100;DHT22;53791;50.696;4.396;2023-08-06T03:28:41;15.10;99.90
23100;DHT22;53791;50.696;4.396;2023-08-06T03:31:10;15.20;99.90
23100;DHT22;53791;50.696;4.396;2023-08-06T03:33:38;15.20;99.90
23100;DHT22;53791;50.696;4.396;2023-08-06T03:36:05;15.20;99.90
23100;DHT22;53791;50.696;4.396;2023-08-06T03:38:33;15.20;99.90
23100;DHT22;53791;50.696;4.396;2023-08-06T03:41:00;15.20;99.90
23100;DHT22;53791;50.696;4.396;2023-08-06T03:43:28;15.20;99.90
23100;DHT22;53791;50.696;4.396;2023-08-06T03:45:55;15.20;99.90
23100;DHT22;53791;50.696;4.396;2023-08-06T03:48:23;15.30;99.90
23100;DHT22;53791;50.696;4.396;2023-08-06T03:50:50;15.10;99.90
23100;DHT22;53791;50.696;4.396;2023-08-06T03:53:18;15.10;99.90
23100;DHT22;53791;50.696;4.396;2023-08-06T03:55:45;15.00;99.90
23100;DHT22;53791;50.696;4.396;2023-08-06T03:58:13;15.00;99.90
23100;DHT22;53791;50.696;4.396;2023-08-06T04:00:40;14.90;99.90
23100;DHT22;53791;50.696;4.396;2023-08-06T04:03:08;14.70;99.90
23100;DHT22;53791;50.696;4.396;2023-08-06T04:05:35;14.70;99.90
23100;DHT22;53791;50.696;4.396;2023-08-06T04:08:03;14.70;99.90
23100;DHT22;53791;50.696;4.396;2023-08-06T04:10:30;14.70;99.90
23100;DHT22;53791;50.696;4.396;2023-08-06T04:12:58;14.60;99.90
23100;DHT22;53791;50.696;4.396;2023-08-06T04:15:27;14.60;99.90
23100;DHT22;53791;50.696;4.396;2023-08-06T04:17:54;14.60;99.90
23100;DHT22;53791;50.696;4.396;2023-08-06T04:20:23;14.50;99.90
23100;DHT22;53791;50.696;4.396;2023-08-06T04:22:50;14.40;99.90
23100;DHT22;53791;50.696;4.396;2023-08-06T04:25:18;14.50;99.90
23100;DHT22;53791;50.696;4.396;2023-08-06T04:27:49;14.50;99.90
23100;DHT22;53791;50.696;4.396;2023-08-06T04:30:17;14.50;99.90
23100;DHT22;53791;50.696;4.396;2023-08-06T04:32:44;14.50;99.90
23100;DHT22;53791;50.696;4.396;2023-08-06T04:35:12;14.40;99.90
23100;DHT22;53791;50.696;4.396;2023-08-06T04:37:39;14.40;99.90
23100;DHT22;53791;50.696;4.396;2023-08-06T04:40:08;14.30;99.90
23100;DHT22;53791;50.696;4.396;2023-08-06T04:42:35;14.30;99.90
23100;DHT22;53791;50.696;4.396;2023-08-06T04:45:03;14.30;99.90
23100;DHT22;53791;50.696;4.396;2023-08-06T04:47:31;14.20;99.90
23100;DHT22;53791;50.696;4.396;2023-08-06T04:49:58;14.30;99.90
23100;DHT22;53791;50.696;4.396;2023-08-06T04:52:26;14.30;99.90
23100;DHT22;53791;50.696;4.396;2023-08-06T04:54:55;14.30;99.90
23100;DHT22;53791;50.696;4.396;2023-08-06T04:57:22;14.30;99.90
23100;DHT22;53791;50.696;4.396;2023-08-06T04:59:50;14.20;99.90
23100;DHT22;53791;50.696;4.396;2023-08-06T05:02:17;14.20;99.90
23100;DHT22;53791;50.696;4.396;2023-08-06T05:04:45;14.30;99.90
23100;DHT22;53791;50.696;4.396;2023-08-06T05:07:12;14.30;99.90
23100;DHT22;53791;50.696;4.396;2023-08-06T05:09:40;14.20;99.90
23100;DHT22;53791;50.696;4.396;2023-08-06T05:12:08;14.20;99.90
23100;DHT22;53791;50.696;4.396;2023-08-06T05:14:35;14.30;99.90
23100;DHT22;53791;50.696;4.396;2023-08-06T05:17:03;14.30;99.90
23100;DHT22;53791;50.696;4.396;2023-08-06T05:19:31;14.30;99.90
23100;DHT22;53791;50.696;4.396;2023-08-06T05:21:58;14.40;99.90
23100;DHT22;53791;50.696;4.396;2023-08-06T05:24:27;14.40;99.90
23100;DHT22;53791;50.696;4.396;2023-08-06T05:26:54;14.40;99.90
23100;DHT22;53791;50.696;4.396;2023-08-06T05:29:22;14.40;99.90
23100;DHT22;53791;50.696;4.396;2023-08-06T05:31:49;14.40;99.90
23100;DHT22;53791;50.696;4.396;2023-08-06T05:34:17;14.50;99.90
23100;DHT22;53791;50.696;4.396;2023-08-06T05:36:44;14.40;99.90
23100;DHT22;53791;50.696;4.396;2023-08-06T05:39:17;14.40;99.90
23100;DHT22;53791;50.696;4.396;2023-08-06T05:41:41;14.40;99.90
23100;DHT22;53791;50.696;4.396;2023-08-06T05:44:08;14.40;99.90
23100;DHT22;53791;50.696;4.396;2023-08-06T05:46:36;14.40;99.90
23100;DHT22;53791;50.696;4.396;2023-08-06T05:49:03;14.40;99.90
23100;DHT22;53791;50.696;4.396;2023-08-06T05:51:31;14.40;99.90
23100;DHT22;53791;50.696;4.396;2023-08-06T05:53:59;14.40;99.90
23100;DHT22;53791;50.696;4.396;2023-08-06T05:56:26;14.40;99.90
23100;DHT22;53791;50.696;4.396;2023-08-06T05:58:54;14.40;99.90
23100;DHT22;53791;50.696;4.396;2023-08-06T06:01:21;14.50;99.90
23100;DHT22;53791;50.696;4.396;2023-08-06T06:03:49;14.40;99.90
23100;DHT22;53791;50.696;4.396;2023-08-06T06:06:17;14.50;99.90
23100;DHT22;53791;50.696;4.396;2023-08-06T06:08:45;14.40;99.90
23100;DHT22;53791;50.696;4.396;2023-08-06T06:11:12;14.40;99.90
23100;DHT22;53791;50.696;4.396;2023-08-06T06:13:40;14.40;99.90
23100;DHT22;53791;50.696;4.396;2023-08-06T06:16:07;14.40;99.90
23100;DHT22;53791;50.696;4.396;2023-08-06T06:18:35;14.40;99.90
23100;DHT22;53791;50.696;4.396;2023-08-06T06:21:02;14.40;99.90
23100;DHT22;53791;50.696;4.396;2023-08-06T06:23:30;14.40;99.90
23100;DHT22;53791;50.696;4.396;2023-08-06T06:25:57;14.50;99.90
23100;DHT22;53791;50.696;4.396;2023-08-06T06:28:25;14.30;99.90
23100;DHT22;53791;50.696;4.396;2023-08-06T06:30:53;14.30;99.90
23100;DHT22;53791;50.696;4.396;2023-08-06T06:33:20;14.40;99.90
23100;DHT22;53791;50.696;4.396;2023-08-06T06:35:49;14.40;99.90
23100;DHT22;53791;50.696;4.396;2023-08-06T06:38:17;14.40;99.90
23100;DHT22;53791;50.696;4.396;2023-08-06T06:40:53;14.20;99.90
23100;DHT22;53791;50.696;4.396;2023-08-06T06:43:13;14.30;99.90
23100;DHT22;53791;50.696;4.396;2023-08-06T06:45:41;14.30;99.90
23100;DHT22;53791;50.696;4.396;2023-08-06T06:48:08;14.30;99.90
23100;DHT22;53791;50.696;4.396;2023-08-06T06:50:36;14.20;99.90
23100;DHT22;53791;50.696;4.396;2023-08-06T06:53:05;14.20;99.90
23100;DHT22;53791;50.696;4.396;2023-08-06T06:55:33;14.20;99.90
23100;DHT22;53791;50.696;4.396;2023-08-06T06:58:00;14.10;99.90
23100;DHT22;53791;50.696;4.396;2023-08-06T07:00:28;14.10;99.90
23100;DHT22;53791;50.696;4.396;2023-08-06T07:02:55;14.10;99.90
23100;DHT22;53791;50.696;4.396;2023-08-06T07:05:23;14.20;99.90
23100;DHT22;53791;50.696;4.396;2023-08-06T07:07:52;14.30;99.90
23100;DHT22;53791;50.696;4.396;2023-08-06T07:10:20;14.30;99.90
23100;DHT22;53791;50.696;4.396;2023-08-06T07:12:47;14.20;99.90
23100;DHT22;53791;50.696;4.396;2023-08-06T07:15:15;14.20;99.90
23100;DHT22;53791;50.696;4.396;2023-08-06T07:17:44;14.30;99.90
23100;DHT22;53791;50.696;4.396;2023-08-06T07:20:11;14.30;99.90
23100;DHT22;53791;50.696;4.396;2023-08-06T07:22:39;14.30;99.90
23100;DHT22;53791;50.696;4.396;2023-08-06T07:25:07;14.30;99.90
23100;DHT22;53791;50.696;4.396;2023-08-06T07:27:34;14.20;99.90
23100;DHT22;53791;50.696;4.396;2023-08-06T07:30:02;14.20;99.90
23100;DHT22;53791;50.696;4.396;2023-08-06T07:32:30;14.20;99.90
23100;DHT22;53791;50.696;4.396;2023-08-06T07:34:57;14.30;99.90
23100;DHT22;53791;50.696;4.396;2023-08-06T07:37:27;14.30;99.90
23100;DHT22;53791;50.696;4.396;2023-08-06T07:39:58;14.20;99.90
23100;DHT22;53791;50.696;4.396;2023-08-06T07:42:25;14.10;99.90
23100;DHT22;53791;50.696;4.396;2023-08-06T07:44:58;14.10;99.90
23100;DHT22;53791;50.696;4.396;2023-08-06T07:47:25;14.10;99.90
23100;DHT22;53791;50.696;4.396;2023-08-06T07:49:53;14.20;99.90
23100;DHT22;53791;50.696;4.396;2023-08-06T07:52:20;14.30;99.90
23100;DHT22;53791;50.696;4.396;2023-08-06T07:54:48;14.40;99.90
23100;DHT22;53791;50.696;4.396;2023-08-06T07:57:15;14.40;99.90
23100;DHT22;53791;50.696;4.396;2023-08-06T07:59:43;14.50;99.90
23100;DHT22;53791;50.696;4.396;2023-08-06T08:02:10;14.60;99.90
23100;DHT22;53791;50.696;4.396;2023-08-06T08:04:39;14.60;99.90
23100;DHT22;53791;50.696;4.396;2023-08-06T08:07:09;14.60;99.90
23100;DHT22;53791;50.696;4.396;2023-08-06T08:09:39;14.40;99.90
23100;DHT22;53791;50.696;4.396;2023-08-06T08:12:06;14.30;99.90
23100;DHT22;53791;50.696;4.396;2023-08-06T08:14:36;14.30;99.90
23100;DHT22;53791;50.696;4.396;2023-08-06T08:17:04;14.30;99.90
23100;DHT22;53791;50.696;4.396;2023-08-06T08:19:33;14.40;99.90
23100;DHT22;53791;50.696;4.396;2023-08-06T08:22:01;14.40;99.90
23100;DHT22;53791;50.696;4.396;2023-08-06T08:24:28;14.40;99.90
23100;DHT22;53791;50.696;4.396;2023-08-06T08:26:57;14.30;99.90
23100;DHT22;53791;50.696;4.396;2023-08-06T08:29:24;14.30;99.90
23100;DHT22;53791;50.696;4.396;2023-08-06T08:31:52;14.30;99.90
23100;DHT22;53791;50.696;4.396;2023-08-06T08:34:24;14.10;99.90
23100;DHT22;53791;50.696;4.396;2023-08-06T08:36:48;14.10;99.90
23100;DHT22;53791;50.696;4.396;2023-08-06T08:39:16;14.20;99.90
23100;DHT22;53791;50.696;4.396;2023-08-06T08:41:44;14.20;99.90
23100;DHT22;53791;50.696;4.396;2023-08-06T08:44:11;14.20;99.90
23100;DHT22;53791;50.696;4.396;2023-08-06T08:46:41;14.20;99.90
23100;DHT22;53791;50.696;4.396;2023-08-06T08:49:11;14.20;99.90
23100;DHT22;53791;50.696;4.396;2023-08-06T08:51:40;14.10;99.90
23100;DHT22;53791;50.696;4.396;2023-08-06T08:54:08;14.10;99.90
23100;DHT22;53791;50.696;4.396;2023-08-06T08:56:36;14.20;99.90
23100;DHT22;53791;50.696;4.396;2023-08-06T08:59:03;14.20;99.90
23100;DHT22;53791;50.696;4.396;2023-08-06T09:01:35;14.20;99.90
23100;DHT22;53791;50.696;4.396;2023-08-06T09:04:04;14.30;99.90
23100;DHT22;53791;50.696;4.396;2023-08-06T09:06:33;14.20;99.90
23100;DHT22;53791;50.696;4.396;2023-08-06T09:09:09;14.20;99.90
23100;DHT22;53791;50.696;4.396;2023-08-06T09:11:36;14.20;99.90
23100;DHT22;53791;50.696;4.396;2023-08-06T09:14:06;14.20;99.90
23100;DHT22;53791;50.696;4.396;2023-08-06T09:16:35;14.20;99.90
23100;DHT22;53791;50.696;4.396;2023-08-06T09:19:09;14.20;99.90
23100;DHT22;53791;50.696;4.396;2023-08-06T09:21:42;14.20;99.90
23100;DHT22;53791;50.696;4.396;2023-08-06T09:24:11;14.30;99.90
23100;DHT22;53791;50.696;4.396;2023-08-06T09:26:42;14.10;99.90
23100;DHT22;53791;50.696;4.396;2023-08-06T09:29:12;14.10;99.90
23100;DHT22;53791;50.696;4.396;2023-08-06T09:31:44;14.10;99.90
23100;DHT22;53791;50.696;4.396;2023-08-06T09:34:16;14.10;99.90
23100;DHT22;53791;50.696;4.396;2023-08-06T09:36:46;13.90;99.90
23100;DHT22;53791;50.696;4.396;2023-08-06T09:39:15;14.00;99.90
23100;DHT22;53791;50.696;4.396;2023-08-06T09:41:43;14.00;99.90
23100;DHT22;53791;50.696;4.396;2023-08-06T09:44:18;14.00;99.90
23100;DHT22;53791;50.696;4.396;2023-08-06T09:46:49;13.90;99.90
23100;DHT22;53791;50.696;4.396;2023-08-06T09:49:19;13.90;99.90
23100;DHT22;53791;50.696;4.396;2023-08-06T09:51:47;13.90;99.90
23100;DHT22;53791;50.696;4.396;2023-08-06T09:54:17;13.90;99.90
23100;DHT22;53791;50.696;4.396;2023-08-06T09:56:47;14.00;99.90
23100;DHT22;53791;50.696;4.396;2023-08-06T09:59:15;13.80;99.90
23100;DHT22;53791;50.696;4.396;2023-08-06T10:01:46;13.80;99.90
23100;DHT22;53791;50.696;4.396;2023-08-06T10:04:15;13.80;99.90
23100;DHT22;53791;50.696;4.396;2023-08-06T10:06:46;13.80;99.90
23100;DHT22;53791;50.696;4.396;2023-08-06T10:09:14;13.60;99.90
23100;DHT22;53791;50.696;4.396;2023-08-06T10:11:50;13.80;99.90
23100;DHT22;53791;50.696;4.396;2023-08-06T10:14:24;13.70;99.90
23100;DHT22;53791;50.696;4.396;2023-08-06T10:16:52;13.80;99.90
23100;DHT22;53791;50.696;4.396;2023-08-06T10:19:21;13.80;99.90
23100;DHT22;53791;50.696;4.396;2023-08-06T10:24:51;13.80;99.90
23100;DHT22;53791;50.696;4.396;2023-08-06T10:27:40;13.90;99.90
23100;DHT22;53791;50.696;4.396;2023-08-06T10:30:25;13.80;99.90
23100;DHT22;53791;50.696;4.396;2023-08-06T10:32:55;13.80;99.90
23100;DHT22;53791;50.696;4.396;2023-08-06T10:35:46;13.80;99.90
23100;DHT22;53791;50.696;4.396;2023-08-06T10:38:18;13.90;99.90
23100;DHT22;53791;50.696;4.396;2023-08-06T10:41:02;14.00;99.90
23100;DHT22;53791;50.696;4.396;2023-08-06T10:43:35;14.00;99.90
23100;DHT22;53791;50.696;4.396;2023-08-06T10:46:09;14.10;99.90
23100;DHT22;53791;50.696;4.396;2023-08-06T10:48:41;14.20;99.90
23100;DHT22;53791;50.696;4.396;2023-08-06T10:51:11;14.20;99.90
23100;DHT22;53791;50.696;4.396;2023-08-06T10:53:48;14.20;99.90
23100;DHT22;53791;50.696;4.396;2023-08-06T10:56:25;14.20;99.90
23100;DHT22;53791;50.696;4.396;2023-08-06T10:58:56;14.20;99.90
23100;DHT22;53791;50.696;4.396;2023-08-06T11:01:24;14.20;99.90
23100;DHT22;53791;50.696;4.396;2023-08-06T11:03:52;14.20;99.90
23100;DHT22;53791;50.696;4.396;2023-08-06T11:06:21;14.20;99.90
23100;DHT22;53791;50.696;4.396;2023-08-06T11:08:51;14.30;99.90
23100;DHT22;53791;50.696;4.396;2023-08-06T11:11:19;14.40;99.90
23100;DHT22;53791;50.696;4.396;2023-08-06T11:13:48;14.60;99.90
23100;DHT22;53791;50.696;4.396;2023-08-06T11:16:20;14.60;99.90
23100;DHT22;53791;50.696;4.396;2023-08-06T11:18:51;14.70;99.90
23100;DHT22;53791;50.696;4.396;2023-08-06T11:21:21;14.80;99.90
23100;DHT22;53791;50.696;4.396;2023-08-06T11:23:49;14.90;99.90
23100;DHT22;53791;50.696;4.396;2023-08-06T11:26:22;15.00;99.90
23100;DHT22;53791;50.696;4.396;2023-08-06T11:28:50;15.10;99.90
23100;DHT22;53791;50.696;4.396;2023-08-06T11:31:21;15.10;99.90
23100;DHT22;53791;50.696;4.396;2023-08-06T11:33:53;15.20;99.90
23100;DHT22;53791;50.696;4.396;2023-08-06T11:36:34;15.20;99.90
23100;DHT22;53791;50.696;4.396;2023-08-06T11:39:03;15.20;99.90
23100;DHT22;53791;50.696;4.396;2023-08-06T11:41:33;15.30;99.90
23100;DHT22;53791;50.696;4.396;2023-08-06T11:44:01;15.30;99.90
23100;DHT22;53791;50.696;4.396;2023-08-06T11:49:01;15.50;99.90
23100;DHT22;53791;50.696;4.396;2023-08-06T11:51:30;15.60;99.90
23100;DHT22;53791;50.696;4.396;2023-08-06T11:54:02;15.60;99.90
23100;DHT22;53791;50.696;4.396;2023-08-06T11:56:29;15.50;99.90
23100;DHT22;53791;50.696;4.396;2023-08-06T11:58:57;15.50;99.90
23100;DHT22;53791;50.696;4.396;2023-08-06T12:01:26;15.50;99.90
23100;DHT22;53791;50.696;4.396;2023-08-06T12:04:00;15.50;99.90
23100;DHT22;53791;50.696;4.396;2023-08-06T12:06:30;15.60;99.90
23100;DHT22;53791;50.696;4.396;2023-08-06T12:09:00;15.60;99.90
23100;DHT22;53791;50.696;4.396;2023-08-06T12:11:32;15.40;99.90
23100;DHT22;53791;50.696;4.396;2023-08-06T12:14:00;15.20;99.90
23100;DHT22;53791;50.696;4.396;2023-08-06T12:16:28;15.00;99.90
23100;DHT22;53791;50.696;4.396;2023-08-06T12:18:57;14.90;99.90
23100;DHT22;53791;50.696;4.396;2023-08-06T12:21:26;14.80;99.90
23100;DHT22;53791;50.696;4.396;2023-08-06T12:23:54;14.90;99.90
23100;DHT22;53791;50.696;4.396;2023-08-06T12:26:26;14.80;99.90
23100;DHT22;53791;50.696;4.396;2023-08-06T12:31:21;14.50;99.90
23100;DHT22;53791;50.696;4.396;2023-08-06T12:33:58;14.60;99.90
23100;DHT22;53791;50.696;4.396;2023-08-06T12:36:24;14.70;99.90
23100;DHT22;53791;50.696;4.396;2023-08-06T12:38:54;14.60;99.90
23100;DHT22;53791;50.696;4.396;2023-08-06T12:41:22;14.50;99.90
23100;DHT22;53791;50.696;4.396;2023-08-06T12:43:49;14.50;99.90
23100;DHT22;53791;50.696;4.396;2023-08-06T12:46:17;14.40;99.90
23100;DHT22;53791;50.696;4.396;2023-08-06T12:48:47;14.40;99.90
23100;DHT22;53791;50.696;4.396;2023-08-06T12:51:15;14.40;99.90
23100;DHT22;53791;50.696;4.396;2023-08-06T12:53:42;14.30;99.90
23100;DHT22;53791;50.696;4.396;2023-08-06T12:56:10;14.10;99.90
23100;DHT22;53791;50.696;4.396;2023-08-06T12:58:37;14.10;99.90
23100;DHT22;53791;50.696;4.396;2023-08-06T13:01:06;14.10;99.90
23100;DHT22;53791;50.696;4.396;2023-08-06T13:03:33;14.10;99.90
23100;DHT22;53791;50.696;4.396;2023-08-06T13:06:01;14.10;99.90
23100;DHT22;53791;50.696;4.396;2023-08-06T13:08:29;14.20;99.90
23100;DHT22;53791;50.696;4.396;2023-08-06T13:10:56;14.20;99.90
23100;DHT22;53791;50.696;4.396;2023-08-06T13:13:24;14.20;99.90
23100;DHT22;53791;50.696;4.396;2023-08-06T13:15:56;14.30;99.90
23100;DHT22;53791;50.696;4.396;2023-08-06T13:18:24;14.20;99.90
23100;DHT22;53791;50.696;4.396;2023-08-06T13:20:53;14.20;99.90
23100;DHT22;53791;50.696;4.396;2023-08-06T13:23:23;14.10;99.90
23100;DHT22;53791;50.696;4.396;2023-08-06T13:25:51;14.10;99.90
23100;DHT22;53791;50.696;4.396;2023-08-06T13:28:28;14.20;99.90
23100;DHT22;53791;50.696;4.396;2023-08-06T13:30:49;14.20;99.90
23100;DHT22;53791;50.696;4.396;2023-08-06T13:33:18;14.40;99.90
23100;DHT22;53791;50.696;4.396;2023-08-06T13:35:46;14.50;99.90
23100;DHT22;53791;50.696;4.396;2023-08-06T13:38:16;14.50;99.90
23100;DHT22;53791;50.696;4.396;2023-08-06T13:40:43;14.50;99.90
23100;DHT22;53791;50.696;4.396;2023-08-06T13:43:14;14.60;99.90
23100;DHT22;53791;50.696;4.396;2023-08-06T13:45:43;14.50;99.90
23100;DHT22;53791;50.696;4.396;2023-08-06T13:48:11;14.40;99.90
23100;DHT22;53791;50.696;4.396;2023-08-06T13:50:38;14.30;99.90
23100;DHT22;53791;50.696;4.396;2023-08-06T13:53:06;14.30;99.90
23100;DHT22;53791;50.696;4.396;2023-08-06T13:55:40;14.40;99.90
23100;DHT22;53791;50.696;4.396;2023-08-06T13:58:40;14.50;99.90
23100;DHT22;53791;50.696;4.396;2023-08-06T14:01:13;14.50;99.90
23100;DHT22;53791;50.696;4.396;2023-08-06T14:03:42;14.60;99.90
23100;DHT22;53791;50.696;4.396;2023-08-06T14:06:09;14.50;99.90
23100;DHT22;53791;50.696;4.396;2023-08-06T14:08:39;14.60;99.90
23100;DHT22;53791;50.696;4.396;2023-08-06T14:11:06;14.50;99.90
23100;DHT22;53791;50.696;4.396;2023-08-06T14:13:37;14.60;99.90
23100;DHT22;53791;50.696;4.396;2023-08-06T14:16:26;14.50;99.90
23100;DHT22;53791;50.696;4.396;2023-08-06T14:18:51;14.50;99.90
23100;DHT22;53791;50.696;4.396;2023-08-06T14:21:18;14.40;99.90
23100;DHT22;53791;50.696;4.396;2023-08-06T14:23:46;14.30;99.90
23100;DHT22;53791;50.696;4.396;2023-08-06T14:26:14;14.40;99.90
23100;DHT22;53791;50.696;4.396;2023-08-06T14:28:41;14.20;99.90
23100;DHT22;53791;50.696;4.396;2023-08-06T14:31:09;14.30;99.90
23100;DHT22;53791;50.696;4.396;2023-08-06T14:33:36;14.30;99.90
23100;DHT22;53791;50.696;4.396;2023-08-06T14:36:04;14.30;99.90
23100;DHT22;53791;50.696;4.396;2023-08-06T14:38:32;14.30;99.90
23100;DHT22;53791;50.696;4.396;2023-08-06T14:40:59;14.30;99.90
23100;DHT22;53791;50.696;4.396;2023-08-06T14:43:27;14.40;99.90
23100;DHT22;53791;50.696;4.396;2023-08-06T14:45:54;14.50;99.90
23100;DHT22;53791;50.696;4.396;2023-08-06T14:48:22;14.50;99.90
23100;DHT22;53791;50.696;4.396;2023-08-06T14:50:52;14.50;99.90
23100;DHT22;53791;50.696;4.396;2023-08-06T14:53:23;14.50;99.90
23100;DHT22;53791;50.696;4.396;2023-08-06T14:55:50;14.50;99.90
23100;DHT22;53791;50.696;4.396;2023-08-06T14:58:19;14.50;99.90
23100;DHT22;53791;50.696;4.396;2023-08-06T15:00:46;14.40;99.90
23100;DHT22;53791;50.696;4.396;2023-08-06T15:03:14;14.40;99.90
23100;DHT22;53791;50.696;4.396;2023-08-06T15:05:52;14.40;99.90
23100;DHT22;53791;50.696;4.396;2023-08-06T15:08:12;14.40;99.90
23100;DHT22;53791;50.696;4.396;2023-08-06T15:10:39;14.50;99.90
23100;DHT22;53791;50.696;4.396;2023-08-06T15:13:07;14.50;99.90
23100;DHT22;53791;50.696;4.396;2023-08-06T15:15:34;14.60;99.90
23100;DHT22;53791;50.696;4.396;2023-08-06T15:18:04;14.60;99.90
23100;DHT22;53791;50.696;4.396;2023-08-06T15:20:32;14.60;99.90
23100;DHT22;53791;50.696;4.396;2023-08-06T15:22:59;14.70;99.90
23100;DHT22;53791;50.696;4.396;2023-08-06T15:25:29;14.80;99.90
23100;DHT22;53791;50.696;4.396;2023-08-06T15:27:56;14.90;99.90
23100;DHT22;53791;50.696;4.396;2023-08-06T15:30:24;14.80;99.90
23100;DHT22;53791;50.696;4.396;2023-08-06T15:32:51;14.80;99.90
23100;DHT22;53791;50.696;4.396;2023-08-06T15:35:19;14.90;99.90
23100;DHT22;53791;50.696;4.396;2023-08-06T15:37:46;14.80;99.90
23100;DHT22;53791;50.696;4.396;2023-08-06T15:40:14;14.80;99.90
23100;DHT22;53791;50.696;4.396;2023-08-06T15:42:41;14.90;99.90
23100;DHT22;53791;50.696;4.396;2023-08-06T15:45:12;15.00;99.90
23100;DHT22;53791;50.696;4.396;2023-08-06T15:47:59;15.10;99.90
23100;DHT22;53791;50.696;4.396;2023-08-06T15:50:26;15.20;99.90
23100;DHT22;53791;50.696;4.396;2023-08-06T15:52:54;15.20;99.90